Time;durP1;ratioP1;P1;durP2;ratioP2;P2;SDS_P1;SDS_P2;PMS_P1;PMS_P2;Temp;Humidity;BMP_temperature;BMP_pressure;BME280_temperature;BME280_humidity;BME280_pressure;Samples;Min_cycle;Max_cycle;Signal;HPM_P1;HPM_P2
2022/10/27 00:03:11;;;;;;;1.77;1.60;;;15.20;60.00;;;14.26;61.29;101911.06;12157968;19;20828;-84
2022/10/27 00:07:13;;;;;;;2.28;1.75;;;15.20;60.00;;;14.20;61.13;101900.88;12154759;19;20484;-84
2022/10/27 00:11:14;;;;;;;4.15;1.83;;;15.10;59.90;;;13.86;61.22;101864.06;12158139;19;20014;-85
2022/10/27 00:15:16;;;;;;;1.77;1.67;;;15.10;59.90;;;14.14;61.22;101915.16;12159589;19;20407;-84
2022/10/27 00:19:18;;;;;;;1.85;1.38;;;15.00;59.80;;;14.03;61.20;101909.63;12159467;19;20596;-84
2022/10/27 00:28:47;;;;;;;1.98;1.48;;;15.00;60.10;;;14.00;61.35;101923.75;12152612;19;20904;-84
2022/10/27 00:32:48;;;;;;;3.20;1.70;;;14.90;60.10;;;13.93;61.30;101924.97;12159665;19;20456;-85
2022/10/27 00:36:50;;;;;;;1.83;1.52;;;14.90;60.00;;;13.92;61.20;101932.00;12156434;19;20021;-83
2022/10/27 00:40:51;;;;;;;1.60;1.50;;;14.80;60.00;;;13.93;61.27;101940.72;12160977;19;20018;-84
2022/10/27 00:44:53;;;;;;;1.60;1.50;;;14.90;60.10;;;13.94;61.23;101950.31;12159087;19;20386;-84
2022/10/27 00:49:02;;;;;;;1.83;1.65;;;14.80;60.30;;;13.81;61.37;101936.94;12154251;19;20018;-84
2022/10/27 00:53:03;;;;;;;1.80;1.70;;;14.80;60.20;;;13.52;61.28;101890.28;12158548;19;20034;-84
2022/10/27 00:57:07;;;;;;;1.98;1.88;;;14.80;60.40;;;13.85;61.31;101956.00;12155692;19;20375;-84
2022/10/27 01:01:08;;;;;;;4.30;1.67;;;14.80;60.40;;;13.79;61.16;101957.16;12149990;19;20790;-84
2022/10/27 01:05:19;;;;;;;2.83;2.33;;;14.70;60.40;;;13.80;61.29;101971.13;12157635;19;20410;-84
2022/10/27 01:09:21;;;;;;;1.95;1.50;;;14.70;60.40;;;13.78;61.31;101971.22;12151402;19;20031;-84
2022/10/27 01:13:23;;;;;;;2.10;1.73;;;14.70;60.50;;;13.70;61.52;101971.59;12155359;19;20022;-84
2022/10/27 01:17:52;;;;;;;1.92;1.70;;;14.70;60.50;;;13.71;61.37;101985.56;12153915;19;20015;-84
2022/10/27 01:22:23;;;;;;;2.33;1.70;;;14.60;61.30;;;13.69;61.48;101984.78;12155966;19;20021;-83
2022/10/27 01:26:49;;;;;;;1.83;1.73;;;14.60;60.60;;;13.60;61.40;101980.00;12155067;19;20395;-84
2022/10/27 01:31:08;;;;;;;3.97;1.85;;;14.40;60.60;;;13.56;61.42;101981.91;12155159;19;20123;-83
2022/10/27 01:35:37;;;;;;;2.40;1.95;;;14.50;60.50;;;13.55;61.37;101974.94;12156170;19;20899;-84
2022/10/27 01:39:50;;;;;;;1.80;1.70;;;14.50;60.40;;;13.58;61.11;101989.69;12155705;19;20308;-84
2022/10/27 01:43:58;;;;;;;4.03;2.22;;;14.50;60.50;;;13.49;61.42;101970.00;12157022;19;20382;-84
2022/10/27 01:48:01;;;;;;;2.67;2.22;;;14.50;60.60;;;13.48;61.47;101963.91;12153080;19;20383;-84
2022/10/27 01:52:06;;;;;;;1.67;1.58;;;14.50;60.60;;;13.47;61.49;101969.22;12151722;19;20312;-84
2022/10/27 01:56:42;;;;;;;3.20;1.92;;;14.40;60.60;;;13.42;61.51;101979.94;12153360;19;20584;-84
2022/10/27 02:01:43;;;;;;;2.05;1.85;;;14.40;60.70;;;13.36;61.53;101982.84;12152886;19;20018;-84
2022/10/27 02:06:10;;;;;;;2.22;2.00;;;14.40;60.90;;;13.34;61.39;101982.09;12153759;19;20018;-84
2022/10/27 02:10:19;;;;;;;2.75;1.92;;;14.30;60.90;;;13.40;61.48;102001.94;12150252;19;20104;-84
2022/10/27 02:14:21;;;;;;;2.05;1.60;;;14.40;61.00;;;13.38;61.57;102003.78;12145144;19;20411;-84
2022/10/27 02:18:29;;;;;;;4.70;1.80;;;14.30;60.90;;;13.24;61.51;101986.84;12149176;19;20832;-84
2022/10/27 02:22:31;;;;;;;2.20;2.00;;;14.30;60.90;;;13.35;61.63;101996.03;12152456;19;20031;-83
2022/10/27 02:26:55;;;;;;;1.90;1.67;;;14.30;61.00;;;13.32;61.53;102004.91;12151724;19;20010;-84
2022/10/27 02:30:59;;;;;;;2.20;2.00;;;14.30;60.80;;;13.26;61.58;102000.78;12150443;19;20015;-84
2022/10/27 02:35:01;;;;;;;2.03;1.92;;;14.10;60.60;;;13.32;61.58;102020.66;12153500;19;20015;-84
2022/10/27 02:39:03;;;;;;;2.20;1.95;;;14.30;60.90;;;13.26;61.56;102013.06;12150695;19;20010;-84
2022/10/27 02:43:04;;;;;;;2.10;2.00;;;14.30;60.90;;;13.32;61.61;102023.28;12153067;19;20031;-84
2022/10/27 02:47:06;;;;;;;2.20;2.10;;;14.20;60.80;;;13.23;61.61;102010.53;12150700;19;20272;-83
2022/10/27 02:51:07;;;;;;;2.00;1.80;;;14.20;60.70;;;13.23;61.50;102021.00;12150132;19;20628;-84
2022/10/27 02:55:09;;;;;;;2.20;1.75;;;14.20;60.80;;;13.21;61.66;102026.34;12151800;19;20057;-84
2022/10/27 02:59:11;;;;;;;2.67;1.92;;;14.20;60.80;;;12.95;61.64;101968.97;12149126;19;20017;-83
2022/10/27 03:03:12;;;;;;;2.03;1.90;;;14.10;60.80;;;13.18;61.62;102016.00;12150748;19;20026;-84
2022/10/27 03:07:14;;;;;;;2.13;1.70;;;14.20;60.80;;;12.94;61.70;101977.78;12145632;19;20771;-84
2022/10/27 03:11:16;;;;;;;1.98;1.85;;;14.10;60.50;;;13.16;61.60;102030.09;12148498;19;20050;-84
2022/10/27 03:15:18;;;;;;;2.90;1.60;;;14.10;60.60;;;12.82;61.85;101980.00;12146033;19;20992;-84
2022/10/27 03:19:19;;;;;;;2.63;1.80;;;14.10;60.60;;;13.12;61.67;102039.88;12149440;19;20018;-83
2022/10/27 03:23:21;;;;;;;1.88;1.77;;;14.10;60.60;;;13.09;61.64;102039.16;12149434;19;20021;-84
2022/10/27 03:27:22;;;;;;;2.92;2.00;;;14.10;60.70;;;13.06;61.69;102041.00;12148347;19;20026;-84
2022/10/27 03:31:24;;;;;;;2.00;1.80;;;14.00;61.30;;;13.03;61.89;102046.38;12149128;19;20014;-84
2022/10/27 03:35:26;;;;;;;1.83;1.73;;;14.00;60.70;;;12.97;61.86;102037.94;12145749;19;20029;-83
2022/10/27 03:39:28;;;;;;;1.92;1.77;;;14.00;60.80;;;13.00;61.77;102049.13;12149583;19;20021;-84
2022/10/27 03:43:29;;;;;;;3.92;1.70;;;14.00;60.80;;;12.94;61.74;102053.81;12147976;19;20043;-84
2022/10/27 03:47:31;;;;;;;3.10;1.80;;;14.00;60.70;;;12.97;61.81;102061.53;12145666;19;20018;-84
2022/10/27 03:51:32;;;;;;;3.75;1.90;;;13.90;60.70;;;12.64;61.61;102017.53;12142907;19;21095;-84
2022/10/27 03:55:34;;;;;;;1.83;1.73;;;14.00;60.70;;;12.62;61.73;102016.72;12144036;19;20363;-84
2022/10/27 03:59:36;;;;;;;2.33;2.13;;;13.90;60.60;;;12.86;61.64;102067.25;12144318;19;20029;-84
2022/10/27 04:03:37;;;;;;;4.20;1.75;;;13.90;60.80;;;12.85;61.67;102065.53;12146184;19;20023;-83
2022/10/27 04:07:39;;;;;;;3.63;1.90;;;13.80;60.70;;;12.85;61.80;102078.63;12157723;19;20018;-83
2022/10/27 04:11:41;;;;;;;2.33;1.77;;;13.90;60.80;;;12.87;61.64;102083.81;12144682;19;20399;-84
2022/10/27 04:15:43;;;;;;;2.15;1.95;;;13.80;60.90;;;12.86;61.76;102095.25;12147085;19;20043;-84
2022/10/27 04:19:44;;;;;;;4.22;2.40;;;13.80;61.10;;;12.83;61.88;102083.97;12148051;19;20010;-84
2022/10/27 04:23:46;;;;;;;2.22;2.10;;;13.90;61.40;;;12.56;61.84;102040.59;12143925;19;20356;-83
2022/10/27 04:27:48;;;;;;;3.28;2.00;;;13.70;61.30;;;12.81;61.84;102087.56;12138642;19;20394;-83
2022/10/27 04:31:52;;;;;;;2.13;1.92;;;13.80;61.20;;;12.81;61.65;102093.66;12138377;19;20018;-83
2022/10/27 04:35:54;;;;;;;2.30;2.10;;;13.80;61.10;;;12.89;61.86;102108.22;12142371;19;20027;-83
2022/10/27 04:39:55;;;;;;;2.13;1.92;;;13.90;61.40;;;12.88;62.02;102103.88;12141943;19;20022;-84
2022/10/27 04:43:56;;;;;;;3.42;2.03;;;13.90;62.00;;;12.76;62.03;102100.84;12141216;19;20025;-83
2022/10/27 04:47:59;;;;;;;2.53;2.30;;;13.90;61.30;;;12.81;61.92;102106.75;12143743;19;20870;-84
2022/10/27 04:52:00;;;;;;;3.00;2.80;;;13.90;61.40;;;12.76;61.90;102103.47;12151999;19;20022;-83
2022/10/27 04:56:02;;;;;;;3.08;2.10;;;13.90;61.60;;;12.50;61.87;102056.53;12153967;19;20022;-83
2022/10/27 05:00:04;;;;;;;3.72;2.30;;;13.90;61.70;;;12.78;62.04;102104.28;12156069;19;20321;-84
2022/10/27 05:04:05;;;;;;;2.60;2.40;;;13.90;61.30;;;12.90;61.87;102120.41;12154171;19;20032;-84
2022/10/27 05:08:10;;;;;;;2.60;2.40;;;13.90;61.30;;;12.88;61.92;102130.09;12150252;19;20857;-84
2022/10/27 05:12:12;;;;;;;3.28;2.25;;;13.90;61.30;;;12.82;61.93;102133.81;12151649;19;20033;-84
2022/10/27 05:16:13;;;;;;;3.17;2.67;;;13.80;61.50;;;12.79;61.77;102136.56;12151784;19;20399;-83
2022/10/27 05:20:16;;;;;;;2.78;2.58;;;13.90;61.60;;;12.75;62.14;102135.03;12153824;19;20014;-83
2022/10/27 05:24:17;;;;;;;3.08;2.55;;;13.80;61.30;;;12.74;62.09;102136.75;12151261;19;20011;-84
2022/10/27 05:28:19;;;;;;;2.63;2.42;;;13.80;61.50;;;12.79;62.06;102158.41;12148685;19;20022;-84
2022/10/27 05:32:21;;;;;;;3.13;2.78;;;13.80;61.50;;;12.71;62.06;102155.25;12149070;19;20431;-84
2022/10/27 05:36:22;;;;;;;3.78;2.53;;;13.80;61.30;;;12.73;62.08;102165.69;12151446;19;20871;-83
2022/10/27 05:40:24;;;;;;;2.40;2.20;;;13.80;61.30;;;12.69;62.04;102157.09;12154149;19;20048;-84
2022/10/27 05:44:26;;;;;;;2.58;2.38;;;13.70;61.20;;;12.70;62.01;102174.50;12152993;19;20380;-83
2022/10/27 05:48:28;;;;;;;2.60;2.40;;;13.60;61.30;;;12.71;62.13;102176.22;12147948;19;20027;-84
2022/10/27 05:52:30;;;;;;;2.40;2.20;;;13.70;61.10;;;12.55;62.05;102152.38;12146334;19;20031;-83
2022/10/27 05:56:31;;;;;;;2.40;2.20;;;13.70;61.20;;;12.62;62.01;102182.69;12151842;19;20035;-83
2022/10/27 06:00:37;;;;;;;2.30;2.05;;;13.70;61.20;;;12.59;61.96;102187.22;12152085;19;20462;-84
2022/10/27 06:04:39;;;;;;;;;;;13.70;61.30;;;12.56;61.99;102192.56;12156372;19;20022;-82
2022/10/27 06:08:41;;;;;;;2.20;2.00;;;13.70;61.20;;;12.59;61.96;102192.44;12145225;19;19919;-83
2022/10/27 06:18:01;;;;;;;2.65;2.30;;;13.60;61.20;;;12.49;62.00;102184.09;12253759;19;20015;-88
2022/10/27 06:22:03;;;;;;;3.08;2.05;;;13.60;61.20;;;12.53;61.96;102188.31;12255706;19;20102;-84
2022/10/27 06:26:05;;;;;;;2.80;2.60;;;13.60;61.30;;;12.44;62.06;102169.47;12256692;19;20026;-84
2022/10/27 06:30:07;;;;;;;2.17;2.05;;;13.50;61.60;;;12.49;62.16;102180.63;12255079;19;20007;-83
2022/10/27 06:34:09;;;;;;;4.93;2.75;;;13.50;61.80;;;12.49;62.11;102186.72;12254992;19;20019;-84
2022/10/27 06:38:15;;;;;;;2.65;2.45;;;13.80;62.40;;;12.49;62.21;102189.31;12252466;19;20010;-85
2022/10/27 06:42:17;;;;;;;2.42;2.33;;;13.50;62.30;;;12.44;62.24;102177.31;12257766;19;20102;-84
2022/10/27 06:46:25;;;;;;;3.00;2.80;;;13.50;62.60;;;12.48;62.26;102189.41;12256442;19;20021;-84
2022/10/27 06:50:27;;;;;;;3.15;2.45;;;13.60;63.00;;;12.48;62.42;102182.41;12256673;19;20183;-85
2022/10/27 06:54:28;;;;;;;15.77;9.25;;;13.60;63.30;;;12.50;62.34;102177.94;12258737;19;20015;-83
2022/10/27 06:58:30;;;;;;;24.42;12.90;;;13.60;63.30;;;12.66;62.28;102211.38;12251258;19;20007;-83
2022/10/27 07:02:32;;;;;;;12.43;7.68;;;13.70;63.40;;;12.70;62.41;102212.97;12255514;19;20340;-84
2022/10/27 07:06:34;;;;;;;7.00;4.97;;;13.70;63.40;;;12.69;62.48;102208.63;12253188;19;20035;-83
2022/10/27 07:10:35;;;;;;;6.15;3.80;;;13.70;63.50;;;12.64;62.37;102203.59;12251872;19;20059;-84
2022/10/27 07:14:37;;;;;;;4.80;3.25;;;14.00;64.00;;;12.75;62.61;102221.53;12253903;19;20021;-84
2022/10/27 07:18:39;;;;;;;3.70;3.00;;;13.80;63.90;;;12.65;62.48;102207.91;12254490;19;20176;-84
2022/10/27 07:22:41;;;;;;;3.25;2.92;;;14.00;63.90;;;12.71;62.63;102226.00;12255549;19;20031;-85
2022/10/27 07:26:42;;;;;;;3.22;2.88;;;13.80;63.70;;;12.79;62.62;102233.56;12252237;19;20031;-84
2022/10/27 07:30:47;;;;;;;3.65;3.35;;;13.90;64.10;;;12.81;62.48;102223.88;12250709;19;20018;-83
2022/10/27 07:34:48;;;;;;;3.67;3.38;;;13.90;64.70;;;12.96;62.74;102238.13;12253028;19;20015;-84
2022/10/27 07:38:50;;;;;;;3.97;3.50;;;14.00;64.70;;;13.03;62.68;102243.06;12253400;19;20530;-85
2022/10/27 07:42:55;;;;;;;4.88;2.80;;;14.30;64.90;;;13.01;62.81;102241.41;12251742;19;20006;-84
2022/10/27 07:46:57;;;;;;;3.43;2.80;;;14.10;64.70;;;13.06;62.85;102249.94;12251415;19;20018;-83
2022/10/27 07:50:58;;;;;;;3.55;3.25;;;14.30;64.80;;;13.16;62.95;102255.69;12251941;19;20015;-84
2022/10/27 07:55:00;;;;;;;3.15;2.65;;;14.20;65.00;;;13.16;62.95;102246.03;12255391;19;20389;-84
2022/10/27 07:59:03;;;;;;;2.53;2.33;;;14.20;65.50;;;13.27;62.96;102254.34;12250321;19;20026;-83
2022/10/27 08:03:10;;;;;;;6.18;3.40;;;14.50;65.90;;;13.35;63.14;102261.03;12254850;19;20010;-83
2022/10/27 08:07:12;;;;;;;3.38;3.08;;;14.40;66.80;;;13.46;63.24;102269.31;12250352;19;20099;-83
2022/10/27 08:11:14;;;;;;;3.50;3.20;;;14.40;67.30;;;13.52;63.27;102253.28;12251004;19;20023;-85
2022/10/27 08:15:16;;;;;;;3.80;3.28;;;14.60;68.10;;;13.61;63.39;102242.41;12254443;19;20015;-84
2022/10/27 08:19:17;;;;;;;5.93;3.47;;;14.90;68.70;;;13.85;63.41;102258.88;12254565;19;20014;-84
2022/10/27 08:23:24;;;;;;;7.35;3.72;;;14.90;69.00;;;13.85;63.43;102239.59;12262012;19;20023;-85
2022/10/27 08:27:26;;;;;;;3.92;3.47;;;15.00;69.30;;;13.84;63.52;102217.75;12265681;19;20015;-85
2022/10/27 08:31:28;;;;;;;3.38;3.13;;;15.20;69.60;;;14.26;63.60;102271.06;12256763;19;20019;-84
2022/10/27 08:35:32;;;;;;;3.22;2.92;;;15.30;69.40;;;14.35;63.65;102266.22;12267764;19;20016;-85
2022/10/27 08:39:34;;;;;;;3.05;2.75;;;15.40;69.40;;;14.46;63.74;102260.44;12263840;19;20017;-84
2022/10/27 08:44:04;;;;;;;3.88;3.22;;;15.60;69.50;;;14.49;63.69;102255.03;12265748;19;20043;-84
2022/10/27 08:48:09;;;;;;;4.53;3.85;;;15.70;69.60;;;14.74;63.83;102278.47;12256861;19;20439;-84
2022/10/27 08:52:44;;;;;;;5.70;4.13;;;15.90;69.50;;;14.88;63.76;102285.69;12258452;19;20010;-85
2022/10/27 08:56:46;;;;;;;3.53;3.05;;;16.00;70.00;;;14.98;64.01;102276.38;12265442;19;20413;-84
2022/10/27 09:01:03;;;;;;;4.18;3.47;;;16.20;69.60;;;15.08;64.05;102268.06;12265750;19;20016;-84
2022/10/27 09:05:35;;;;;;;4.95;3.17;;;16.30;69.90;;;15.34;63.98;102286.03;12258388;19;20019;-85
2022/10/27 09:09:51;;;;;;;3.33;3.03;;;16.50;70.10;;;15.51;64.27;102281.69;12250354;19;20018;-83
2022/10/27 09:14:39;;;;;;;4.32;3.15;;;16.60;70.60;;;15.64;64.45;102274.88;12256058;19;20011;-83
2022/10/27 09:18:48;;;;;;;4.93;3.30;;;16.90;70.70;;;15.88;64.38;102278.91;12250690;19;20354;-84
2022/10/27 09:22:52;;;;;;;3.05;2.78;;;17.00;70.20;;;15.99;64.64;102257.25;12255236;19;20027;-83
2022/10/27 09:26:57;;;;;;;3.85;3.17;;;17.20;70.20;;;16.26;64.33;102277.78;12254432;19;20634;-85
2022/10/27 09:30:59;;;;;;;4.40;2.70;;;17.60;70.40;;;16.36;64.59;102257.88;12253391;19;20425;-85
2022/10/27 09:35:25;;;;;;;3.25;2.83;;;17.60;70.00;;;16.61;64.53;102265.28;12255288;19;20044;-84
2022/10/27 09:39:26;;;;;;;3.80;3.10;;;17.80;70.50;;;16.81;64.69;102256.28;12257150;19;20027;-84
2022/10/27 09:43:29;;;;;;;2.80;2.42;;;18.00;70.30;;;16.77;64.76;102218.66;12257969;19;20271;-85
2022/10/27 09:47:40;;;;;;;4.43;2.70;;;18.20;69.70;;;17.11;64.54;102255.44;12251759;19;20047;-85
2022/10/27 09:51:49;;;;;;;8.40;3.10;;;18.40;69.00;;;17.39;64.73;102271.38;12254660;19;20019;-85
2022/10/27 09:55:52;;;;;;;2.53;2.33;;;18.70;69.00;;;17.55;64.85;102266.03;12255371;19;20026;-85
2022/10/27 10:00:20;;;;;;;2.97;2.60;;;18.90;68.80;;;17.78;64.39;102274.34;12253834;19;20007;-85
2022/10/27 10:04:28;;;;;;;2.90;2.50;;;19.00;68.40;;;17.91;64.70;102259.47;12259063;19;20017;-86
2022/10/27 10:08:34;;;;;;;5.93;2.90;;;19.20;68.20;;;18.04;64.38;102257.78;12253971;19;20046;-84
2022/10/27 10:12:36;;;;;;;2.47;2.28;;;19.40;67.40;;;18.04;64.47;102228.69;12256401;19;20024;-85
2022/10/27 10:16:44;;;;;;;2.40;2.10;;;19.60;67.30;;;18.39;64.40;102267.94;12256055;19;20082;-87
2022/10/27 10:20:45;;;;;;;3.92;2.10;;;19.70;67.30;;;18.56;64.51;102272.97;12259723;19;20007;-86
2022/10/27 10:24:47;;;;;;;3.28;2.20;;;19.80;66.60;;;18.69;64.28;102274.84;12260857;19;20047;-86
2022/10/27 10:28:54;;;;;;;2.75;2.30;;;20.10;67.10;;;18.77;64.75;102257.56;12253993;19;20027;-85
2022/10/27 10:32:56;;;;;;;2.03;1.75;;;20.00;66.60;;;18.95;64.63;102255.47;12253012;19;20074;-85
2022/10/27 10:37:01;;;;;;;2.03;1.85;;;20.30;66.90;;;19.14;64.76;102254.25;12253803;19;20025;-84
2022/10/27 10:41:09;;;;;;;;;;;20.40;66.10;;;19.20;64.06;102259.16;12255002;19;20010;-84
2022/10/27 10:45:23;;;;;;;7.35;1.88;;;20.60;66.40;;;19.36;64.10;102259.81;12252166;19;19926;-85
2022/10/27 10:49:33;;;;;;;1.52;1.42;;;20.70;66.40;;;19.56;64.50;102260.25;12256947;19;20014;-85
2022/10/27 10:53:41;;;;;;;2.28;1.40;;;20.90;65.20;;;19.69;64.09;102261.13;12258646;19;20110;-84
2022/10/27 10:57:44;;;;;;;2.65;1.92;;;21.00;64.90;;;19.82;64.07;102261.97;12256549;19;20028;-85
2022/10/27 11:02:21;;;;;;;1.98;1.80;;;21.30;63.60;;;19.94;63.76;102254.13;12255078;19;20017;-84
2022/10/27 11:06:23;;;;;;;2.28;1.70;;;21.20;63.70;;;19.95;64.07;102246.03;12256066;19;20022;-85
2022/10/27 11:10:38;;;;;;;2.42;1.50;;;21.30;63.30;;;20.04;63.64;102247.22;12254201;19;20086;-86
2022/10/27 11:14:42;;;;;;;2.75;1.75;;;21.30;63.00;;;20.08;63.63;102240.72;12256216;19;20011;-85
2022/10/27 11:19:09;;;;;;;2.40;1.73;;;21.40;62.60;;;20.19;63.16;102243.44;12257465;19;20010;-89
2022/10/27 11:23:24;;;;;;;3.25;1.88;;;21.40;62.60;;;20.29;63.41;102244.47;12259927;19;20484;-85
2022/10/27 11:28:18;;;;;;;2.00;1.90;;;21.70;62.30;;;20.40;63.11;102246.38;12259375;19;20042;-87
2022/10/27 11:32:28;;;;;;;2.35;1.52;;;21.60;61.80;;;20.50;63.24;102238.59;12257033;19;20006;-86
2022/10/27 11:36:40;;;;;;;1.80;1.52;;;21.70;62.30;;;20.53;62.96;102220.66;12255411;19;20078;-87
2022/10/27 11:41:08;;;;;;;4.65;1.40;;;21.80;62.10;;;20.57;62.90;102223.91;12254083;19;20014;-85
2022/10/27 11:45:22;;;;;;;3.78;1.20;;;21.80;61.80;;;20.70;62.86;102238.00;12250914;19;20022;-86
2022/10/27 11:49:57;;;;;;;2.20;1.40;;;21.90;61.10;;;20.63;62.52;102212.88;12251855;19;20003;-85
2022/10/27 11:53:59;;;;;;;2.40;1.60;;;21.90;60.80;;;20.75;62.71;102225.22;12252296;19;20006;-85
2022/10/27 11:58:39;;;;;;;1.40;1.30;;;21.90;60.10;;;20.82;62.76;102236.25;12262834;19;20035;-87
2022/10/27 12:02:44;;;;;;;1.65;1.20;;;21.90;60.60;;;20.90;62.53;102233.00;12274698;19;20375;-85
2022/10/27 12:07:06;;;;;;;3.00;1.67;;;22.00;60.60;;;20.95;62.24;102238.81;12278393;19;20480;-86
2022/10/27 12:11:14;;;;;;;7.63;4.50;;;22.00;60.00;;;20.98;62.37;102227.94;12270192;19;20014;-85
2022/10/27 12:15:19;;;;;;;6.38;2.78;;;22.10;60.40;;;21.05;62.09;102231.84;12274752;19;20025;-85
2022/10/27 12:19:28;;;;;;;3.08;1.70;;;22.10;60.20;;;21.03;62.05;102220.47;12275894;19;20059;-86
2022/10/27 12:23:41;;;;;;;3.20;1.80;;;22.30;60.20;;;20.97;62.00;102197.06;12274982;19;20034;-85
2022/10/27 12:27:50;;;;;;;4.63;1.30;;;22.20;59.70;;;21.09;62.06;102211.19;12270996;19;20484;-86
2022/10/27 12:31:59;;;;;;;2.13;1.25;;;22.20;59.90;;;21.17;62.03;102214.13;12269125;19;20108;-86
2022/10/27 12:36:39;;;;;;;3.63;1.35;;;22.20;59.70;;;21.18;62.18;102210.50;12265492;19;20014;-85
2022/10/27 12:41:10;;;;;;;1.67;1.52;;;22.30;59.80;;;21.24;61.55;102204.72;12275442;19;20006;-88
2022/10/27 12:45:39;;;;;;;1.42;1.33;;;22.30;59.60;;;21.21;61.68;102195.19;12271427;19;20014;-86
2022/10/27 12:50:21;;;;;;;5.07;1.48;;;22.40;59.80;;;21.34;61.76;102202.22;12273403;19;20014;-86
2022/10/27 12:55:01;;;;;;;2.15;1.23;;;22.40;59.20;;;21.40;61.66;102199.09;12275755;19;20025;-86
2022/10/27 12:59:49;;;;;;;3.10;1.20;;;22.40;59.20;;;21.43;61.45;102196.22;12270327;19;20038;-86
2022/10/27 13:04:43;;;;;;;1.45;1.10;;;22.40;59.50;;;21.44;61.68;102187.25;12280103;19;20018;-87
2022/10/27 13:09:13;;;;;;;1.35;1.00;;;22.50;59.40;;;21.51;61.31;102183.16;12270026;19;20350;-87
2022/10/27 13:13:47;;;;;;;3.42;1.60;;;22.50;59.30;;;21.54;61.48;102184.72;12265023;19;20014;-89
2022/10/27 13:18:05;;;;;;;2.22;1.80;;;22.50;59.30;;;21.58;60.93;102175.56;12266018;19;20018;-88
2022/10/27 13:22:25;;;;;;;3.30;2.20;;;22.60;58.90;;;21.56;61.45;102173.00;12266404;19;20115;-87
2022/10/27 13:26:53;;;;;;;5.38;3.30;;;22.60;59.10;;;21.55;61.19;102166.00;12262883;19;20043;-88
2022/10/27 13:31:13;;;;;;;7.10;3.83;;;22.60;58.70;;;21.59;60.64;102172.78;12263286;19;20419;-86
2022/10/27 13:35:16;;;;;;;7.80;4.05;;;22.60;58.80;;;21.67;60.72;102168.66;12265607;19;20472;-87
2022/10/27 13:39:17;;;;;;;6.32;2.58;;;22.60;58.80;;;21.68;60.67;102165.88;12263988;19;20053;-88
2022/10/27 13:43:22;;;;;;;6.07;1.75;;;22.60;58.50;;;21.70;60.71;102155.97;12265622;19;20095;-87
2022/10/27 13:47:24;;;;;;;2.38;1.38;;;22.70;59.00;;;21.63;60.61;102137.00;12263354;19;20044;-86
2022/10/27 13:51:43;;;;;;;2.17;1.30;;;22.70;59.00;;;21.62;60.90;102145.94;12266888;19;20010;-87
2022/10/27 13:55:59;;;;;;;1.30;1.20;;;22.80;58.70;;;21.76;60.55;102149.31;12263296;19;20750;-87
2022/10/27 14:00:33;;;;;;;3.28;1.20;;;22.70;58.60;;;21.74;60.67;102151.25;12263083;19;20023;-87
2022/10/27 14:04:58;;;;;;;3.78;1.20;;;22.70;58.60;;;21.71;60.66;102135.53;12262137;19;20011;-87
2022/10/27 14:09:36;;;;;;;2.03;1.42;;;22.70;58.70;;;21.74;60.17;102138.81;12258010;19;20010;-86
2022/10/27 14:13:45;;;;;;;1.85;1.70;;;22.70;58.50;;;21.74;60.48;102133.50;12266234;19;20035;-86
2022/10/27 14:17:47;;;;;;;4.18;1.95;;;22.70;58.50;;;21.84;60.38;102142.41;12261295;19;20013;-86
2022/10/27 14:21:53;;;;;;;2.53;1.50;;;22.80;58.30;;;21.80;60.24;102137.47;12259915;19;20021;-87
2022/10/27 14:25:56;;;;;;;2.47;1.40;;;22.90;58.60;;;21.90;60.49;102145.53;12254624;19;20022;-86
2022/10/27 14:30:24;;;;;;;2.22;1.60;;;22.80;58.70;;;21.73;59.96;102128.28;12256192;19;20052;-85
2022/10/27 14:34:26;;;;;;;1.75;1.55;;;22.80;58.90;;;21.77;59.87;102125.25;12252189;19;20066;-85
2022/10/27 14:38:28;;;;;;;4.82;1.60;;;22.80;58.80;;;21.78;60.03;102128.75;12250204;19;20464;-85
2022/10/27 14:42:32;;;;;;;3.30;1.70;;;22.70;58.70;;;21.58;60.33;102090.50;12251602;19;20010;-85
2022/10/27 14:46:43;;;;;;;3.23;1.70;;;22.80;58.80;;;21.79;60.13;102127.78;12249226;19;20010;-85
2022/10/27 14:50:45;;;;;;;2.35;1.45;;;22.70;58.60;;;21.78;59.80;102128.75;12251587;19;20010;-84
2022/10/27 14:54:53;;;;;;;3.15;1.70;;;22.70;58.80;;;21.63;60.12;102107.75;12244770;19;20018;-85
2022/10/27 14:59:15;;;;;;;3.50;1.52;;;22.70;58.80;;;21.64;60.08;102105.94;12247709;19;20031;-84
2022/10/27 15:03:16;;;;;;;2.28;1.55;;;22.60;58.80;;;21.64;59.88;102105.94;12249096;19;20022;-85
2022/10/27 15:07:19;;;;;;;2.65;1.67;;;22.60;58.90;;;21.60;59.72;102105.34;12246959;19;20081;-85
2022/10/27 15:11:25;;;;;;;3.72;2.28;;;22.50;59.00;;;21.49;59.69;102093.88;12247725;19;20507;-84
2022/10/27 15:15:40;;;;;;;2.00;1.42;;;22.50;58.90;;;21.52;59.84;102107.78;12250331;19;20019;-84
2022/10/27 15:19:50;;;;;;;2.10;1.55;;;22.50;59.00;;;21.54;59.87;102119.13;12249512;19;20090;-84
2022/10/27 15:24:02;;;;;;;4.78;2.20;;;22.40;59.10;;;21.40;59.91;102114.91;12249562;19;20022;-86
2022/10/27 15:28:05;;;;;;;1.58;1.38;;;22.30;59.20;;;21.42;59.94;102120.94;12173618;19;21041;-84
2022/10/27 15:32:21;;;;;;;8.23;2.03;;;22.20;59.20;;;21.31;59.94;102120.06;12146781;19;20756;-84
2022/10/27 15:36:27;;;;;;;2.92;1.60;;;22.20;59.20;;;21.27;59.73;102119.44;12149742;19;20355;-84
2022/10/27 15:40:42;;;;;;;4.97;1.40;;;22.10;59.20;;;21.14;59.89;102114.28;12151933;19;20014;-85
2022/10/27 15:44:44;;;;;;;1.55;1.23;;;22.00;59.20;;;21.08;59.73;102113.88;12147760;19;20015;-85
2022/10/27 15:49:13;;;;;;;1.58;1.33;;;21.90;59.10;;;20.91;59.29;102112.53;12147417;19;20025;-85
2022/10/27 15:53:19;;;;;;;3.00;1.40;;;21.80;59.10;;;20.87;59.97;102116.38;12146276;19;20125;-85
2022/10/27 15:57:39;;;;;;;2.55;1.60;;;21.60;59.10;;;20.68;59.72;102096.53;12149706;19;20023;-84
2022/10/27 16:01:45;;;;;;;1.30;1.20;;;21.60;59.10;;;20.58;59.74;102094.69;12150454;19;20019;-85
2022/10/27 16:05:48;;;;;;;1.60;1.50;;;21.50;59.10;;;20.53;59.70;102105.66;12148688;19;20014;-84
2022/10/27 16:09:50;;;;;;;4.57;1.48;;;21.30;59.20;;;20.17;59.51;102049.09;12148345;19;20033;-83
2022/10/27 16:13:56;;;;;;;1.70;1.60;;;21.20;59.30;;;20.27;59.59;102083.72;12150744;19;20046;-84
2022/10/27 16:17:59;;;;;;;2.17;1.73;;;21.00;59.30;;;20.28;59.36;102099.53;12146640;19;20094;-85
2022/10/27 16:22:03;;;;;;;2.78;1.73;;;20.80;59.30;;;20.20;59.45;102098.38;12149404;19;20011;-84
2022/10/27 16:26:05;;;;;;;1.35;1.25;;;20.90;59.50;;;20.12;59.85;102088.38;12146542;19;20022;-85
2022/10/27 16:30:13;;;;;;;3.40;1.27;;;20.80;59.50;;;20.10;59.73;102098.25;12148127;19;20018;-84
2022/10/27 16:34:21;;;;;;;1.85;1.48;;;20.80;59.60;;;19.96;59.30;102090.47;12150731;19;20021;-85
2022/10/27 16:38:22;;;;;;;2.38;1.40;;;20.70;59.60;;;19.87;59.56;102081.34;12150955;19;20026;-85
2022/10/27 16:42:26;;;;;;;2.17;1.52;;;20.60;59.60;;;19.71;59.60;102068.34;12142497;19;20371;-84
2022/10/27 16:46:28;;;;;;;2.95;1.23;;;20.50;59.70;;;19.71;59.80;102078.97;12154766;19;20030;-86
2022/10/27 16:50:30;;;;;;;4.10;1.40;;;20.50;59.80;;;19.67;59.82;102088.94;12153826;19;20380;-85
2022/10/27 16:54:36;;;;;;;1.60;1.27;;;20.40;59.80;;;19.63;59.54;102092.75;12153453;19;20036;-85
2022/10/27 16:58:40;;;;;;;1.73;1.13;;;20.30;59.70;;;19.52;59.95;102084.72;12152348;19;20019;-84
2022/10/27 17:02:42;;;;;;;2.38;1.42;;;20.30;59.80;;;19.54;59.69;102098.69;12155492;19;20018;-85
2022/10/27 17:06:45;;;;;;;1.73;1.45;;;20.20;59.70;;;19.47;59.82;102100.13;12151845;19;20019;-85
2022/10/27 17:10:47;;;;;;;2.28;1.30;;;20.10;60.00;;;19.19;59.89;102056.16;12153514;19;20006;-85
2022/10/27 17:14:49;;;;;;;3.95;1.50;;;20.00;59.70;;;19.28;59.55;102084.66;12157541;19;20018;-85